UKOH/KHE METAR and TAF weather

Enter ICAO airport designator
Station Type Date Time Source
UKOH METAR 2019/05/26 01:00 UTC NOAA

UKOH 260100Z 25002MPS 8000 NCS 15/15 Q1008 NOSIG


Station Type Date Time Source
UKOH Decoded METAR 2019/05/26 01:00 UTC NOAA

Station name not available
May 25, 2019 - 09:00 PM EDT / 2019.05.26 0100 UTC
Wind: from the WSW (250 degrees) at 4 MPH (4 KT):0
Visibility: 4 mile(s):0
Temperature: 59 F (15 C)
Dew Point: 59 F (15 C)
Relative Humidity: 100%
Pressure (altimeter): 29.77 in. Hg (1008 hPa)
ob: UKOH 260100Z 25002MPS 8000 NCS 15/15 Q1008 NOSIG
cycle: 1

Station Type Date Time Source
UKOH TAF UTC NOAA

Error!

Example: see airport list